Hauptseite
METAR-TAF:

METAR-TAF

Flughäfen :

Pjöngjang, Nordkorea

Flughafen Sunan

Breite: 39-02N, Länge: 125-47E, Höhe: 36 m

METAR: fehlend

Zeit: 06:00 (21:30 UTC)

Prognose

Neuester Wetterbericht von vor 16 Stunden und 50 Minuten, um 04:40 UTC
Gültige Prognose vom 29 um 06 UTC bis 30 um 06 UTC
Wind 16 kt aus Südwest
Sichtweite 10 km oder mehr
keine Wolken unter 1500 m und keine Kumulonimbus oder Gewitterwolken
Übergehend zu
vom 29 um 08 UTC bis 29 um 10 UTC
Wind 10 kt aus West/Südwest
Zeitweise
vom 29 um 18 UTC bis 29 um 24 UTC
Sichtweite: 2000 m
feuchter Dunst

TAF: ZKPY 290440Z 2906/3006 23008MPS CAVOK BECMG 2908/2910 25005MPS TEMPO 2918/2924 2000 BR

Wetterbeobachtungen und Prognosen von mehr als 4000 Flughäfen (METAR und TAF Bericht).

Die verfügbaren Stationen werden durch gelbe und rote Markierungen auf der Karte dargestellt.

Führen Sie die Maus auf sie, um den Namen der Station zu sehen.

Darauf klicken, um die Beobachtung von Wetterbeobachtungen und Prognosen zu sehen.

Um die Karte zu ändern : klicken Sie auf den grünen Tasten mit einem schwarzen Kreuz Zum Vergrößern, auf den grünen Button mit einem Gedankenstrich zu verkleinern, oder auf die grünen Pfeile für benachbarte Karten.


METAR-TAF: